createdAt,value
2023-04-16T00:00:52.517Z,17.65
2023-04-16T00:05:22.738Z,16.52
2023-04-16T00:09:40.492Z,25.08
2023-04-16T00:13:58.028Z,16.30
2023-04-16T00:18:15.846Z,16.80
2023-04-16T00:22:33.384Z,13.90
2023-04-16T00:26:51.408Z,18.30
2023-04-16T00:35:27.397Z,17.10
2023-04-16T00:39:44.891Z,53.35
2023-04-16T00:44:02.590Z,21.70
2023-04-16T00:48:21.252Z,24.98
2023-04-16T00:52:39.097Z,26.48
2023-04-16T00:56:58.680Z,25.20
2023-04-16T01:01:16.483Z,23.70
2023-04-16T01:05:34.255Z,23.23
2023-04-16T01:09:51.799Z,33.42
2023-04-16T01:14:09.468Z,27.27
2023-04-16T01:18:27.170Z,21.70
2023-04-16T01:22:44.844Z,19.23
2023-04-16T01:27:02.392Z,17.35
2023-04-16T01:31:20.094Z,16.35
2023-04-16T01:35:38.275Z,17.38
2023-04-16T01:44:13.858Z,18.45
2023-04-16T01:48:31.673Z,17.60
2023-04-16T01:57:07.068Z,19.13
2023-04-16T02:01:24.852Z,14.77
2023-04-16T02:05:42.629Z,13.30
2023-04-16T02:10:00.207Z,16.50
2023-04-16T02:14:18.132Z,14.68
2023-04-16T02:18:35.629Z,19.67
2023-04-16T02:22:53.284Z,14.50
2023-04-16T02:27:12.299Z,16.63
2023-04-16T02:31:30.806Z,14.80
2023-04-16T02:35:48.958Z,18.80
2023-04-16T02:40:07.549Z,17.98
2023-04-16T02:44:26.048Z,17.35
2023-04-16T02:48:43.527Z,15.07
2023-04-16T02:53:01.288Z,20.70
2023-04-16T02:57:18.916Z,18.08
2023-04-16T03:01:36.457Z,17.10
2023-04-16T03:05:54.392Z,16.25
2023-04-16T03:10:12.510Z,17.88
2023-04-16T03:14:31.528Z,14.07
2023-04-16T03:18:49.673Z,14.27
2023-04-16T03:23:07.264Z,14.15
2023-04-16T03:27:24.939Z,14.13
2023-04-16T03:31:42.638Z,11.13
2023-04-16T03:40:18.581Z,9.85
2023-04-16T03:44:36.358Z,11.93
2023-04-16T03:48:54.069Z,10.23
2023-04-16T03:53:11.564Z,10.15
2023-04-16T03:57:29.393Z,8.85
2023-04-16T04:01:47.091Z,12.32
2023-04-16T04:06:09.176Z,9.88
2023-04-16T04:10:26.852Z,11.00
2023-04-16T04:14:44.513Z,10.38
2023-04-16T04:19:02.132Z,11.52
2023-04-16T04:23:19.836Z,10.02
2023-04-16T04:27:37.365Z,10.82
2023-04-16T04:31:55.734Z,12.30
2023-04-16T04:36:13.348Z,10.35
2023-04-16T04:40:31.107Z,13.77
2023-04-16T04:44:49.028Z,12.18
2023-04-16T04:53:24.681Z,13.55
2023-04-16T04:57:42.880Z,14.90
2023-04-16T05:02:00.980Z,11.70
2023-04-16T05:06:18.875Z,15.27
2023-04-16T05:10:36.640Z,15.80
2023-04-16T05:14:54.248Z,16.15
2023-04-16T05:19:12.019Z,14.23
2023-04-16T05:27:47.713Z,15.80
2023-04-16T05:32:05.668Z,16.02
2023-04-16T05:40:40.911Z,16.47
2023-04-16T05:44:58.414Z,20.55
2023-04-16T05:49:19.027Z,19.85
2023-04-16T05:53:36.723Z,18.45
2023-04-16T05:57:54.565Z,20.45
2023-04-16T06:02:12.397Z,20.83
2023-04-16T06:06:30.123Z,21.25
2023-04-16T06:10:47.856Z,21.52
2023-04-16T06:15:06.691Z,29.48
2023-04-16T06:19:24.196Z,25.40
2023-04-16T06:23:41.970Z,23.98
2023-04-16T06:27:59.557Z,26.30
2023-04-16T06:32:17.849Z,31.17
2023-04-16T06:36:37.727Z,35.70
2023-04-16T06:40:55.567Z,29.48
2023-04-16T06:45:13.720Z,31.08
2023-04-16T06:49:31.459Z,31.00
2023-04-16T06:53:49.732Z,27.27
2023-04-16T06:58:07.450Z,31.25
2023-04-16T07:02:25.384Z,31.00
2023-04-16T07:06:43.242Z,29.67
2023-04-16T07:11:01.269Z,33.42
2023-04-16T07:19:37.412Z,27.67
2023-04-16T07:23:55.188Z,32.38
2023-04-16T07:28:13.184Z,26.98
2023-04-16T07:32:31.095Z,30.17
2023-04-16T07:36:49.125Z,23.77
2023-04-16T07:41:06.906Z,28.05
2023-04-16T07:45:24.945Z,32.05
2023-04-16T07:54:00.289Z,34.35
2023-04-16T07:58:17.916Z,39.28
2023-04-16T08:02:35.728Z,40.30
2023-04-16T08:06:54.697Z,42.03
2023-04-16T08:11:12.291Z,42.20
2023-04-16T08:15:30.138Z,43.00
2023-04-16T08:19:47.787Z,38.83
2023-04-16T08:24:05.877Z,36.38
2023-04-16T08:28:23.421Z,41.53
2023-04-16T08:32:41.274Z,38.03
2023-04-16T08:41:16.678Z,37.47
2023-04-16T08:45:35.684Z,40.13
2023-04-16T08:49:58.464Z,36.72
2023-04-16T08:54:43.594Z,30.65
2023-04-16T08:59:05.581Z,22.02
2023-04-16T09:03:23.359Z,25.25
2023-04-16T09:12:00.318Z,27.55
2023-04-16T09:16:18.752Z,30.25
2023-04-16T09:20:36.527Z,29.63
2023-04-16T09:24:54.160Z,26.65
2023-04-16T09:29:11.994Z,24.95
2023-04-16T09:33:29.803Z,25.50
2023-04-16T09:37:58.172Z,17.13
2023-04-16T09:42:16.003Z,19.00
2023-04-16T09:50:53.183Z,17.80
2023-04-16T09:55:13.734Z,16.95
2023-04-16T09:59:34.404Z,16.33
2023-04-16T10:03:56.013Z,18.98
2023-04-16T10:08:14.876Z,15.35
2023-04-16T10:12:35.802Z,13.75
2023-04-16T10:16:54.280Z,13.55
2023-04-16T10:21:13.055Z,13.82
2023-04-16T10:25:32.504Z,11.73
2023-04-16T10:29:50.911Z,13.98
2023-04-16T10:34:10.400Z,12.27
2023-04-16T10:38:28.753Z,10.52
2023-04-16T10:42:58.671Z,12.13
2023-04-16T10:47:16.302Z,11.18
2023-04-16T10:51:36.578Z,11.35
2023-04-16T10:56:13.086Z,11.73
2023-04-16T11:00:30.975Z,13.50
2023-04-16T11:04:50.031Z,9.27
2023-04-16T11:09:26.501Z,11.05
2023-04-16T11:13:48.889Z,13.48
2023-04-16T11:18:07.473Z,9.02
2023-04-16T11:22:25.391Z,6.68
2023-04-16T11:31:09.402Z,23.45
2023-04-16T11:35:27.562Z,12.07
2023-04-16T11:39:52.951Z,8.15
2023-04-16T11:44:28.344Z,9.02
2023-04-16T11:48:48.328Z,8.95
2023-04-16T11:53:06.790Z,7.50
2023-04-16T11:57:33.235Z,11.35
2023-04-16T12:01:56.449Z,7.93
2023-04-16T12:06:14.303Z,6.97
2023-04-16T12:10:37.944Z,18.20
2023-04-16T12:14:57.852Z,11.95
2023-04-16T12:19:15.825Z,6.40
2023-04-16T12:23:34.607Z,4.82
2023-04-16T12:27:56.101Z,6.43
2023-04-16T12:32:23.701Z,6.90
2023-04-16T12:36:43.095Z,9.60
2023-04-16T12:41:02.662Z,21.50
2023-04-16T12:45:20.341Z,6.35
2023-04-16T12:53:56.046Z,23.27
2023-04-16T13:02:32.600Z,5.85
2023-04-16T13:06:51.566Z,5.65
2023-04-16T13:11:09.239Z,4.88
2023-04-16T13:15:27.017Z,8.02
2023-04-16T13:19:44.741Z,7.43
2023-04-16T13:24:02.611Z,9.98
2023-04-16T13:28:20.155Z,4.80
2023-04-16T13:36:55.569Z,8.73
2023-04-16T13:41:13.437Z,7.10
2023-04-16T13:45:31.077Z,4.65
2023-04-16T13:49:49.586Z,3.05
2023-04-16T13:54:07.091Z,5.80
2023-04-16T13:58:25.052Z,4.85
2023-04-16T14:02:43.484Z,5.53
2023-04-16T14:07:01.440Z,4.05
2023-04-16T14:11:19.117Z,4.18
2023-04-16T14:15:36.679Z,5.82
2023-04-16T14:24:11.927Z,3.92
2023-04-16T14:28:29.639Z,9.07
2023-04-16T14:32:47.267Z,4.72
2023-04-16T14:37:06.045Z,4.38
2023-04-16T14:41:23.669Z,4.20
2023-04-16T14:45:42.072Z,6.03
2023-04-16T14:50:00.040Z,5.75
2023-04-16T14:58:38.622Z,6.60
2023-04-16T15:02:57.086Z,7.57
2023-04-16T15:07:14.859Z,8.95
2023-04-16T15:11:32.489Z,5.72
2023-04-16T15:15:50.242Z,12.05
2023-04-16T15:20:09.516Z,7.35
2023-04-16T15:24:27.053Z,7.15
2023-04-16T15:28:44.744Z,6.25
2023-04-16T15:33:02.393Z,5.63
2023-04-16T15:37:20.174Z,9.05
2023-04-16T15:46:17.450Z,7.53
2023-04-16T15:50:35.407Z,5.03
2023-04-16T15:54:53.217Z,8.35
2023-04-16T15:59:10.913Z,6.95
2023-04-16T16:03:29.044Z,9.10
2023-04-16T16:07:47.018Z,6.93
2023-04-16T16:12:04.762Z,8.85
2023-04-16T16:16:22.379Z,10.52
2023-04-16T16:20:40.934Z,9.73
2023-04-16T16:24:58.698Z,6.57
2023-04-16T16:29:16.531Z,8.30
2023-04-16T16:33:34.397Z,15.68
2023-04-16T16:42:18.989Z,9.23
2023-04-16T16:46:37.197Z,10.20
2023-04-16T16:50:54.999Z,7.95
2023-04-16T16:55:12.884Z,8.32
2023-04-16T17:03:48.171Z,17.50
2023-04-16T17:12:25.412Z,15.35
2023-04-16T17:16:43.243Z,12.18
2023-04-16T17:25:18.513Z,21.98
2023-04-16T17:29:36.344Z,33.78
2023-04-16T17:33:53.986Z,32.78
2023-04-16T17:38:11.991Z,71.97
2023-04-16T17:42:29.724Z,51.20
2023-04-16T17:46:47.597Z,22.73
2023-04-16T17:51:17.648Z,15.60
2023-04-16T17:55:36.078Z,13.38
2023-04-16T17:59:53.761Z,10.15
2023-04-16T18:04:12.036Z,12.88
2023-04-16T18:08:30.132Z,23.92
2023-04-16T18:12:48.178Z,17.20
2023-04-16T18:21:24.739Z,17.08
2023-04-16T18:25:42.300Z,14.05
2023-04-16T18:30:00.135Z,16.55
2023-04-16T18:34:17.793Z,16.77
2023-04-16T18:38:36.989Z,46.90
2023-04-16T18:42:59.169Z,46.75
2023-04-16T18:47:17.123Z,36.47
2023-04-16T18:51:34.763Z,20.17
2023-04-16T18:55:55.744Z,16.67
2023-04-16T19:00:14.017Z,25.02
2023-04-16T19:04:32.017Z,21.00
2023-04-16T19:08:49.681Z,23.08
2023-04-16T19:13:07.462Z,13.40
2023-04-16T19:17:25.050Z,14.88
2023-04-16T19:21:42.770Z,14.23
2023-04-16T19:26:01.732Z,15.27
2023-04-16T19:30:19.534Z,14.63
2023-04-16T19:34:37.159Z,10.57
2023-04-16T19:38:54.862Z,94.38
2023-04-16T19:43:13.114Z,22.75
2023-04-16T19:51:48.350Z,16.17
2023-04-16T19:56:06.099Z,51.33
2023-04-16T20:00:23.734Z,23.20
2023-04-16T20:04:41.496Z,23.13
2023-04-16T20:08:59.085Z,19.23
2023-04-16T20:13:18.613Z,26.33
2023-04-16T20:17:36.387Z,27.77
2023-04-16T20:21:54.233Z,33.72
2023-04-16T20:26:18.993Z,28.83
2023-04-16T20:30:39.633Z,29.17
2023-04-16T20:34:57.334Z,22.48
2023-04-16T20:39:14.961Z,22.02
2023-04-16T20:43:38.753Z,17.20
2023-04-16T20:47:56.541Z,14.38
2023-04-16T20:52:14.802Z,14.32
2023-04-16T20:56:32.344Z,12.23
2023-04-16T21:00:51.756Z,10.88
2023-04-16T21:05:14.310Z,11.20
2023-04-16T21:09:32.176Z,8.45
2023-04-16T21:13:49.730Z,11.60
2023-04-16T21:18:08.046Z,9.48
2023-04-16T21:22:25.622Z,9.10
2023-04-16T21:26:43.325Z,8.80
2023-04-16T21:31:00.924Z,7.93
2023-04-16T21:35:18.753Z,6.72
2023-04-16T21:39:36.473Z,7.75
2023-04-16T21:48:12.538Z,6.53
2023-04-16T21:52:30.790Z,8.45
2023-04-16T21:56:48.757Z,6.57
2023-04-16T22:01:07.275Z,6.25
2023-04-16T22:05:27.117Z,8.00
2023-04-16T22:09:44.657Z,7.35
2023-04-16T22:14:03.366Z,6.60
2023-04-16T22:18:21.045Z,7.32
2023-04-16T22:22:39.730Z,8.40
2023-04-16T22:26:57.276Z,4.55
2023-04-16T22:31:14.973Z,6.00
2023-04-16T22:35:33.241Z,7.38
2023-04-16T22:39:51.262Z,5.47
2023-04-16T22:44:08.928Z,6.50
2023-04-16T22:48:26.616Z,6.80
2023-04-16T22:52:44.199Z,5.47
2023-04-16T22:57:02.455Z,7.88
2023-04-16T23:01:19.988Z,5.85
2023-04-16T23:05:37.941Z,7.15
2023-04-16T23:09:55.733Z,5.03
2023-04-16T23:14:16.218Z,6.43
2023-04-16T23:18:34.437Z,6.00
2023-04-16T23:22:53.158Z,6.80
2023-04-16T23:27:10.919Z,7.32
2023-04-16T23:31:28.633Z,5.13
2023-04-16T23:35:47.769Z,6.90
2023-04-16T23:40:09.061Z,7.25
2023-04-16T23:44:28.381Z,6.07
2023-04-16T23:48:45.956Z,6.18
2023-04-16T23:53:03.656Z,5.03
2023-04-16T23:57:21.223Z,6.82
